sensor_id;sensor_type;location;lat;lon;timestamp;P1;durP1;ratioP1;P2;durP2;ratioP2
8562;SDS011;16392;52.508;13.468;2023-03-01T00:00:38;328.03;;;61.63;;
8562;SDS011;16392;52.508;13.468;2023-03-01T00:03:05;328.63;;;60.70;;
8562;SDS011;16392;52.508;13.468;2023-03-01T00:05:33;327.93;;;62.77;;
8562;SDS011;16392;52.508;13.468;2023-03-01T00:08:00;328.03;;;62.70;;
8562;SDS011;16392;52.508;13.468;2023-03-01T00:10:27;327.67;;;62.10;;
8562;SDS011;16392;52.508;13.468;2023-03-01T00:12:53;328.80;;;59.90;;
8562;SDS011;16392;52.508;13.468;2023-03-01T00:15:21;327.77;;;63.53;;
8562;SDS011;16392;52.508;13.468;2023-03-01T00:17:48;328.53;;;72.13;;
8562;SDS011;16392;52.508;13.468;2023-03-01T00:20:14;324.53;;;59.57;;
8562;SDS011;16392;52.508;13.468;2023-03-01T00:22:43;323.93;;;61.07;;
8562;SDS011;16392;52.508;13.468;2023-03-01T00:25:09;324.87;;;61.87;;
8562;SDS011;16392;52.508;13.468;2023-03-01T00:27:36;326.87;;;64.13;;
8562;SDS011;16392;52.508;13.468;2023-03-01T00:30:03;327.37;;;63.50;;
8562;SDS011;16392;52.508;13.468;2023-03-01T00:32:30;323.30;;;61.43;;
8562;SDS011;16392;52.508;13.468;2023-03-01T00:34:57;324.37;;;61.93;;
8562;SDS011;16392;52.508;13.468;2023-03-01T00:37:23;326.10;;;64.10;;
8562;SDS011;16392;52.508;13.468;2023-03-01T00:39:51;320.87;;;61.53;;
8562;SDS011;16392;52.508;13.468;2023-03-01T00:42:18;321.07;;;60.63;;
8562;SDS011;16392;52.508;13.468;2023-03-01T00:44:45;320.93;;;63.47;;
8562;SDS011;16392;52.508;13.468;2023-03-01T00:47:11;321.33;;;60.17;;
8562;SDS011;16392;52.508;13.468;2023-03-01T00:49:39;324.07;;;64.30;;
8562;SDS011;16392;52.508;13.468;2023-03-01T00:52:05;323.57;;;63.73;;
8562;SDS011;16392;52.508;13.468;2023-03-01T00:54:32;323.73;;;60.53;;
8562;SDS011;16392;52.508;13.468;2023-03-01T00:57:00;317.57;;;62.23;;
8562;SDS011;16392;52.508;13.468;2023-03-01T00:59:27;320.30;;;61.10;;
8562;SDS011;16392;52.508;13.468;2023-03-01T01:01:53;331.43;;;64.73;;
8562;SDS011;16392;52.508;13.468;2023-03-01T01:04:20;321.97;;;60.67;;
8562;SDS011;16392;52.508;13.468;2023-03-01T01:06:47;318.10;;;61.77;;
8562;SDS011;16392;52.508;13.468;2023-03-01T01:09:14;323.07;;;63.83;;
8562;SDS011;16392;52.508;13.468;2023-03-01T01:11:43;322.70;;;65.20;;
8562;SDS011;16392;52.508;13.468;2023-03-01T01:14:11;322.93;;;63.27;;
8562;SDS011;16392;52.508;13.468;2023-03-01T01:16:38;324.17;;;61.70;;
8562;SDS011;16392;52.508;13.468;2023-03-01T01:19:05;319.90;;;61.40;;
8562;SDS011;16392;52.508;13.468;2023-03-01T01:21:32;321.13;;;60.97;;
8562;SDS011;16392;52.508;13.468;2023-03-01T01:23:59;319.43;;;61.53;;
8562;SDS011;16392;52.508;13.468;2023-03-01T01:26:27;323.47;;;60.20;;
8562;SDS011;16392;52.508;13.468;2023-03-01T01:28:55;323.80;;;61.23;;
8562;SDS011;16392;52.508;13.468;2023-03-01T01:31:24;322.23;;;63.47;;
8562;SDS011;16392;52.508;13.468;2023-03-01T01:33:51;319.63;;;60.47;;
8562;SDS011;16392;52.508;13.468;2023-03-01T01:36:19;320.93;;;60.20;;
8562;SDS011;16392;52.508;13.468;2023-03-01T01:38:45;320.10;;;60.57;;
8562;SDS011;16392;52.508;13.468;2023-03-01T01:41:12;316.20;;;59.40;;
8562;SDS011;16392;52.508;13.468;2023-03-01T01:43:41;319.73;;;60.00;;
8562;SDS011;16392;52.508;13.468;2023-03-01T01:46:13;316.40;;;60.63;;
8562;SDS011;16392;52.508;13.468;2023-03-01T01:48:47;318.57;;;61.40;;
8562;SDS011;16392;52.508;13.468;2023-03-01T01:51:19;319.83;;;60.00;;
8562;SDS011;16392;52.508;13.468;2023-03-01T01:53:50;319.03;;;60.40;;
8562;SDS011;16392;52.508;13.468;2023-03-01T01:56:19;317.47;;;61.17;;
8562;SDS011;16392;52.508;13.468;2023-03-01T01:58:47;317.70;;;64.83;;
8562;SDS011;16392;52.508;13.468;2023-03-01T02:01:14;315.60;;;59.53;;
8562;SDS011;16392;52.508;13.468;2023-03-01T02:03:42;314.20;;;61.20;;
8562;SDS011;16392;52.508;13.468;2023-03-01T02:06:13;315.73;;;59.90;;
8562;SDS011;16392;52.508;13.468;2023-03-01T02:08:45;322.17;;;67.90;;
8562;SDS011;16392;52.508;13.468;2023-03-01T02:11:14;320.00;;;61.03;;
8562;SDS011;16392;52.508;13.468;2023-03-01T02:13:43;319.70;;;62.60;;
8562;SDS011;16392;52.508;13.468;2023-03-01T02:16:11;324.53;;;74.10;;
8562;SDS011;16392;52.508;13.468;2023-03-01T02:18:40;318.57;;;64.20;;
8562;SDS011;16392;52.508;13.468;2023-03-01T02:21:20;317.53;;;59.10;;
8562;SDS011;16392;52.508;13.468;2023-03-01T02:24:09;316.07;;;60.13;;
8562;SDS011;16392;52.508;13.468;2023-03-01T02:26:46;319.00;;;65.23;;
8562;SDS011;16392;52.508;13.468;2023-03-01T02:29:17;315.83;;;59.83;;
8562;SDS011;16392;52.508;13.468;2023-03-01T02:31:43;317.17;;;63.93;;
8562;SDS011;16392;52.508;13.468;2023-03-01T02:34:11;318.73;;;61.43;;
8562;SDS011;16392;52.508;13.468;2023-03-01T02:36:40;320.20;;;68.90;;
8562;SDS011;16392;52.508;13.468;2023-03-01T02:39:13;313.67;;;59.80;;
8562;SDS011;16392;52.508;13.468;2023-03-01T02:41:46;317.30;;;62.27;;
8562;SDS011;16392;52.508;13.468;2023-03-01T02:44:16;320.77;;;64.27;;
8562;SDS011;16392;52.508;13.468;2023-03-01T02:46:44;317.60;;;62.87;;
8562;SDS011;16392;52.508;13.468;2023-03-01T02:49:17;316.90;;;59.80;;
8562;SDS011;16392;52.508;13.468;2023-03-01T02:51:48;318.27;;;62.63;;
8562;SDS011;16392;52.508;13.468;2023-03-01T02:54:39;316.57;;;60.33;;
8562;SDS011;16392;52.508;13.468;2023-03-01T02:57:09;313.30;;;59.13;;
8562;SDS011;16392;52.508;13.468;2023-03-01T02:59:37;312.57;;;61.30;;
8562;SDS011;16392;52.508;13.468;2023-03-01T03:02:06;324.37;;;64.30;;
8562;SDS011;16392;52.508;13.468;2023-03-01T03:04:33;314.80;;;60.93;;
8562;SDS011;16392;52.508;13.468;2023-03-01T03:06:59;318.33;;;60.50;;
8562;SDS011;16392;52.508;13.468;2023-03-01T03:09:26;314.07;;;60.93;;
8562;SDS011;16392;52.508;13.468;2023-03-01T03:11:53;313.43;;;61.67;;
8562;SDS011;16392;52.508;13.468;2023-03-01T03:14:19;313.67;;;59.80;;
8562;SDS011;16392;52.508;13.468;2023-03-01T03:16:48;313.93;;;61.53;;
8562;SDS011;16392;52.508;13.468;2023-03-01T03:19:15;315.40;;;63.03;;
8562;SDS011;16392;52.508;13.468;2023-03-01T03:21:43;311.87;;;62.23;;
8562;SDS011;16392;52.508;13.468;2023-03-01T03:24:10;313.80;;;62.03;;
8562;SDS011;16392;52.508;13.468;2023-03-01T03:26:36;310.63;;;62.37;;
8562;SDS011;16392;52.508;13.468;2023-03-01T03:29:03;310.83;;;60.83;;
8562;SDS011;16392;52.508;13.468;2023-03-01T03:31:30;314.77;;;62.23;;
8562;SDS011;16392;52.508;13.468;2023-03-01T03:33:58;314.93;;;60.70;;
8562;SDS011;16392;52.508;13.468;2023-03-01T03:36:24;312.67;;;61.97;;
8562;SDS011;16392;52.508;13.468;2023-03-01T03:38:51;311.23;;;62.33;;
8562;SDS011;16392;52.508;13.468;2023-03-01T03:41:18;313.10;;;60.20;;
8562;SDS011;16392;52.508;13.468;2023-03-01T03:43:44;314.60;;;64.93;;
8562;SDS011;16392;52.508;13.468;2023-03-01T03:46:11;312.53;;;60.67;;
8562;SDS011;16392;52.508;13.468;2023-03-01T03:48:38;315.33;;;65.37;;
8562;SDS011;16392;52.508;13.468;2023-03-01T03:51:09;307.53;;;60.73;;
8562;SDS011;16392;52.508;13.468;2023-03-01T03:53:36;317.93;;;61.87;;
8562;SDS011;16392;52.508;13.468;2023-03-01T03:56:03;311.60;;;60.13;;
8562;SDS011;16392;52.508;13.468;2023-03-01T03:58:30;314.40;;;71.70;;
8562;SDS011;16392;52.508;13.468;2023-03-01T04:00:57;310.87;;;63.73;;
8562;SDS011;16392;52.508;13.468;2023-03-01T04:03:26;312.83;;;65.20;;
8562;SDS011;16392;52.508;13.468;2023-03-01T04:05:54;307.03;;;61.50;;
8562;SDS011;16392;52.508;13.468;2023-03-01T04:08:24;311.33;;;65.03;;
8562;SDS011;16392;52.508;13.468;2023-03-01T04:10:52;310.00;;;59.63;;
8562;SDS011;16392;52.508;13.468;2023-03-01T04:13:22;305.60;;;59.43;;
8562;SDS011;16392;52.508;13.468;2023-03-01T04:15:50;317.93;;;63.47;;
8562;SDS011;16392;52.508;13.468;2023-03-01T04:18:18;305.77;;;59.50;;
8562;SDS011;16392;52.508;13.468;2023-03-01T04:20:48;306.00;;;63.30;;
8562;SDS011;16392;52.508;13.468;2023-03-01T04:23:17;305.53;;;58.07;;
8562;SDS011;16392;52.508;13.468;2023-03-01T04:25:47;306.03;;;61.47;;
8562;SDS011;16392;52.508;13.468;2023-03-01T04:28:18;306.00;;;59.63;;
8562;SDS011;16392;52.508;13.468;2023-03-01T04:30:45;303.20;;;60.73;;
8562;SDS011;16392;52.508;13.468;2023-03-01T04:33:12;305.20;;;61.73;;
8562;SDS011;16392;52.508;13.468;2023-03-01T04:35:39;304.23;;;59.97;;
8562;SDS011;16392;52.508;13.468;2023-03-01T04:38:05;302.67;;;57.70;;
8562;SDS011;16392;52.508;13.468;2023-03-01T04:40:33;304.20;;;59.57;;
8562;SDS011;16392;52.508;13.468;2023-03-01T04:43:01;306.40;;;61.43;;
8562;SDS011;16392;52.508;13.468;2023-03-01T04:45:28;308.97;;;59.70;;
8562;SDS011;16392;52.508;13.468;2023-03-01T04:47:55;302.43;;;59.57;;
8562;SDS011;16392;52.508;13.468;2023-03-01T04:50:23;299.37;;;58.73;;
8562;SDS011;16392;52.508;13.468;2023-03-01T04:52:50;301.40;;;58.80;;
8562;SDS011;16392;52.508;13.468;2023-03-01T04:55:18;302.17;;;59.70;;
8562;SDS011;16392;52.508;13.468;2023-03-01T04:57:44;304.23;;;60.90;;
8562;SDS011;16392;52.508;13.468;2023-03-01T05:00:13;302.60;;;60.27;;
8562;SDS011;16392;52.508;13.468;2023-03-01T05:02:49;305.07;;;62.07;;
8562;SDS011;16392;52.508;13.468;2023-03-01T05:05:19;308.73;;;62.20;;
8562;SDS011;16392;52.508;13.468;2023-03-01T05:07:50;301.33;;;60.40;;
8562;SDS011;16392;52.508;13.468;2023-03-01T05:10:18;306.43;;;64.27;;
8562;SDS011;16392;52.508;13.468;2023-03-01T05:12:44;306.47;;;63.97;;
8562;SDS011;16392;52.508;13.468;2023-03-01T05:15:13;304.10;;;58.97;;
8562;SDS011;16392;52.508;13.468;2023-03-01T05:17:39;304.00;;;61.63;;
8562;SDS011;16392;52.508;13.468;2023-03-01T05:20:07;300.93;;;58.63;;
8562;SDS011;16392;52.508;13.468;2023-03-01T05:22:35;303.00;;;58.63;;
8562;SDS011;16392;52.508;13.468;2023-03-01T05:25:02;303.80;;;62.77;;
8562;SDS011;16392;52.508;13.468;2023-03-01T05:27:29;302.73;;;58.90;;
8562;SDS011;16392;52.508;13.468;2023-03-01T05:29:56;301.87;;;61.50;;
8562;SDS011;16392;52.508;13.468;2023-03-01T05:32:24;302.30;;;59.60;;
8562;SDS011;16392;52.508;13.468;2023-03-01T05:34:50;302.90;;;58.80;;
8562;SDS011;16392;52.508;13.468;2023-03-01T05:37:19;302.10;;;60.30;;
8562;SDS011;16392;52.508;13.468;2023-03-01T05:39:45;302.43;;;59.87;;
8562;SDS011;16392;52.508;13.468;2023-03-01T05:42:15;306.97;;;60.57;;
8562;SDS011;16392;52.508;13.468;2023-03-01T05:44:41;301.60;;;59.33;;
8562;SDS011;16392;52.508;13.468;2023-03-01T05:47:08;303.37;;;62.13;;
8562;SDS011;16392;52.508;13.468;2023-03-01T05:49:36;307.40;;;60.97;;
8562;SDS011;16392;52.508;13.468;2023-03-01T05:52:03;299.63;;;58.67;;
8562;SDS011;16392;52.508;13.468;2023-03-01T05:54:29;300.37;;;58.90;;
8562;SDS011;16392;52.508;13.468;2023-03-01T05:56:56;306.17;;;59.43;;
8562;SDS011;16392;52.508;13.468;2023-03-01T05:59:23;302.33;;;59.53;;
8562;SDS011;16392;52.508;13.468;2023-03-01T06:01:50;304.23;;;60.23;;
8562;SDS011;16392;52.508;13.468;2023-03-01T06:04:16;303.67;;;59.80;;
8562;SDS011;16392;52.508;13.468;2023-03-01T06:06:44;305.93;;;61.47;;
8562;SDS011;16392;52.508;13.468;2023-03-01T06:09:11;304.10;;;58.70;;
8562;SDS011;16392;52.508;13.468;2023-03-01T06:11:37;307.57;;;63.70;;
8562;SDS011;16392;52.508;13.468;2023-03-01T06:14:05;310.93;;;64.20;;
8562;SDS011;16392;52.508;13.468;2023-03-01T06:16:32;313.67;;;62.03;;
8562;SDS011;16392;52.508;13.468;2023-03-01T06:18:59;323.27;;;64.13;;
8562;SDS011;16392;52.508;13.468;2023-03-01T06:21:26;324.57;;;61.47;;
8562;SDS011;16392;52.508;13.468;2023-03-01T06:23:54;323.77;;;59.53;;
8562;SDS011;16392;52.508;13.468;2023-03-01T06:26:20;326.63;;;60.57;;
8562;SDS011;16392;52.508;13.468;2023-03-01T06:28:47;332.00;;;64.83;;
8562;SDS011;16392;52.508;13.468;2023-03-01T06:31:13;337.07;;;65.87;;
8562;SDS011;16392;52.508;13.468;2023-03-01T06:33:40;339.17;;;64.43;;
8562;SDS011;16392;52.508;13.468;2023-03-01T06:36:07;339.70;;;69.87;;
8562;SDS011;16392;52.508;13.468;2023-03-01T06:38:35;343.37;;;67.47;;
8562;SDS011;16392;52.508;13.468;2023-03-01T06:41:03;346.77;;;64.97;;
8562;SDS011;16392;52.508;13.468;2023-03-01T06:43:30;342.63;;;62.53;;
8562;SDS011;16392;52.508;13.468;2023-03-01T06:45:56;341.17;;;61.93;;
8562;SDS011;16392;52.508;13.468;2023-03-01T06:48:23;345.20;;;64.57;;
8562;SDS011;16392;52.508;13.468;2023-03-01T06:50:50;343.60;;;63.23;;
8562;SDS011;16392;52.508;13.468;2023-03-01T06:53:16;344.23;;;65.27;;
8562;SDS011;16392;52.508;13.468;2023-03-01T06:55:43;350.20;;;69.97;;
8562;SDS011;16392;52.508;13.468;2023-03-01T06:58:11;350.60;;;62.87;;
8562;SDS011;16392;52.508;13.468;2023-03-01T07:00:37;353.50;;;63.47;;
8562;SDS011;16392;52.508;13.468;2023-03-01T07:03:05;357.77;;;63.80;;
8562;SDS011;16392;52.508;13.468;2023-03-01T07:05:32;363.70;;;67.23;;
8562;SDS011;16392;52.508;13.468;2023-03-01T07:07:59;365.00;;;67.53;;
8562;SDS011;16392;52.508;13.468;2023-03-01T07:10:26;368.70;;;67.40;;
8562;SDS011;16392;52.508;13.468;2023-03-01T07:12:54;375.17;;;67.43;;
8562;SDS011;16392;52.508;13.468;2023-03-01T07:15:22;379.57;;;72.03;;
8562;SDS011;16392;52.508;13.468;2023-03-01T07:17:49;375.73;;;66.83;;
8562;SDS011;16392;52.508;13.468;2023-03-01T07:20:16;387.03;;;69.40;;
8562;SDS011;16392;52.508;13.468;2023-03-01T07:22:43;389.10;;;73.43;;
8562;SDS011;16392;52.508;13.468;2023-03-01T07:25:10;390.53;;;71.97;;
8562;SDS011;16392;52.508;13.468;2023-03-01T07:27:37;392.93;;;73.53;;
8562;SDS011;16392;52.508;13.468;2023-03-01T07:30:04;399.70;;;78.27;;
8562;SDS011;16392;52.508;13.468;2023-03-01T07:32:32;399.03;;;75.70;;
8562;SDS011;16392;52.508;13.468;2023-03-01T07:34:59;400.97;;;75.90;;
8562;SDS011;16392;52.508;13.468;2023-03-01T07:37:26;405.03;;;76.43;;
8562;SDS011;16392;52.508;13.468;2023-03-01T07:39:53;410.33;;;78.97;;
8562;SDS011;16392;52.508;13.468;2023-03-01T07:42:19;415.70;;;81.70;;
8562;SDS011;16392;52.508;13.468;2023-03-01T07:44:46;418.30;;;84.35;;
8562;SDS011;16392;52.508;13.468;2023-03-01T07:47:12;422.13;;;93.07;;
8562;SDS011;16392;52.508;13.468;2023-03-01T07:49:40;425.83;;;92.68;;
8562;SDS011;16392;52.508;13.468;2023-03-01T07:52:09;425.00;;;87.13;;
8562;SDS011;16392;52.508;13.468;2023-03-01T07:54:36;429.02;;;91.50;;
8562;SDS011;16392;52.508;13.468;2023-03-01T07:57:03;426.25;;;89.05;;
8562;SDS011;16392;52.508;13.468;2023-03-01T07:59:29;430.00;;;91.60;;
8562;SDS011;16392;52.508;13.468;2023-03-01T08:01:56;434.00;;;95.53;;
8562;SDS011;16392;52.508;13.468;2023-03-01T08:04:23;439.55;;;94.53;;
8562;SDS011;16392;52.508;13.468;2023-03-01T08:06:53;434.77;;;98.53;;
8562;SDS011;16392;52.508;13.468;2023-03-01T08:09:20;440.80;;;102.05;;
8562;SDS011;16392;52.508;13.468;2023-03-01T08:11:46;442.52;;;102.40;;
8562;SDS011;16392;52.508;13.468;2023-03-01T08:14:13;436.20;;;97.30;;
8562;SDS011;16392;52.508;13.468;2023-03-01T08:16:39;443.63;;;104.45;;
8562;SDS011;16392;52.508;13.468;2023-03-01T08:19:06;443.92;;;109.28;;
8562;SDS011;16392;52.508;13.468;2023-03-01T08:21:34;444.00;;;106.20;;
8562;SDS011;16392;52.508;13.468;2023-03-01T08:24:02;444.73;;;107.93;;
8562;SDS011;16392;52.508;13.468;2023-03-01T08:26:30;446.95;;;106.65;;
8562;SDS011;16392;52.508;13.468;2023-03-01T08:28:59;449.42;;;108.70;;
8562;SDS011;16392;52.508;13.468;2023-03-01T08:31:27;443.90;;;105.72;;
8562;SDS011;16392;52.508;13.468;2023-03-01T08:33:56;443.73;;;100.97;;
8562;SDS011;16392;52.508;13.468;2023-03-01T08:36:25;439.75;;;101.60;;
8562;SDS011;16392;52.508;13.468;2023-03-01T08:38:53;444.23;;;105.20;;
8562;SDS011;16392;52.508;13.468;2023-03-01T08:41:21;441.80;;;103.30;;
8562;SDS011;16392;52.508;13.468;2023-03-01T08:43:48;445.60;;;104.00;;
8562;SDS011;16392;52.508;13.468;2023-03-01T08:46:15;446.40;;;110.68;;
8562;SDS011;16392;52.508;13.468;2023-03-01T08:48:41;443.38;;;108.70;;
8562;SDS011;16392;52.508;13.468;2023-03-01T08:51:08;441.17;;;102.43;;
8562;SDS011;16392;52.508;13.468;2023-03-01T08:53:36;438.27;;;98.45;;
8562;SDS011;16392;52.508;13.468;2023-03-01T08:56:03;442.65;;;102.32;;
8562;SDS011;16392;52.508;13.468;2023-03-01T08:58:31;446.25;;;106.22;;
8562;SDS011;16392;52.508;13.468;2023-03-01T09:00:58;438.33;;;99.57;;
8562;SDS011;16392;52.508;13.468;2023-03-01T09:03:25;437.27;;;96.90;;
8562;SDS011;16392;52.508;13.468;2023-03-01T09:05:52;435.48;;;98.43;;
8562;SDS011;16392;52.508;13.468;2023-03-01T09:08:19;431.63;;;91.75;;
8562;SDS011;16392;52.508;13.468;2023-03-01T09:10:46;437.58;;;98.55;;
8562;SDS011;16392;52.508;13.468;2023-03-01T09:13:12;436.52;;;94.80;;
8562;SDS011;16392;52.508;13.468;2023-03-01T09:15:40;433.25;;;92.88;;
8562;SDS011;16392;52.508;13.468;2023-03-01T09:18:06;435.13;;;92.78;;
8562;SDS011;16392;52.508;13.468;2023-03-01T09:20:33;434.23;;;93.78;;
8562;SDS011;16392;52.508;13.468;2023-03-01T09:23:00;436.90;;;96.32;;
8562;SDS011;16392;52.508;13.468;2023-03-01T09:25:27;433.45;;;93.47;;
8562;SDS011;16392;52.508;13.468;2023-03-01T09:27:54;432.98;;;92.07;;
8562;SDS011;16392;52.508;13.468;2023-03-01T09:30:21;433.33;;;94.80;;
8562;SDS011;16392;52.508;13.468;2023-03-01T09:32:50;434.17;;;94.10;;
8562;SDS011;16392;52.508;13.468;2023-03-01T09:35:17;436.65;;;89.63;;
8562;SDS011;16392;52.508;13.468;2023-03-01T09:37:45;428.80;;;90.03;;
8562;SDS011;16392;52.508;13.468;2023-03-01T09:40:12;428.20;;;92.68;;
8562;SDS011;16392;52.508;13.468;2023-03-01T09:42:46;436.75;;;92.95;;
8562;SDS011;16392;52.508;13.468;2023-03-01T09:45:20;431.15;;;91.47;;
8562;SDS011;16392;52.508;13.468;2023-03-01T09:47:54;433.83;;;98.53;;
8562;SDS011;16392;52.508;13.468;2023-03-01T09:50:22;433.45;;;92.55;;
8562;SDS011;16392;52.508;13.468;2023-03-01T09:53:00;444.63;;;108.03;;
8562;SDS011;16392;52.508;13.468;2023-03-01T09:55:29;442.40;;;102.88;;
8562;SDS011;16392;52.508;13.468;2023-03-01T09:58:00;442.90;;;106.43;;
8562;SDS011;16392;52.508;13.468;2023-03-01T10:00:42;442.85;;;108.22;;
8562;SDS011;16392;52.508;13.468;2023-03-01T10:03:14;438.45;;;103.45;;
8562;SDS011;16392;52.508;13.468;2023-03-01T10:05:52;436.77;;;100.32;;
8562;SDS011;16392;52.508;13.468;2023-03-01T10:08:26;435.13;;;96.93;;
8562;SDS011;16392;52.508;13.468;2023-03-01T10:10:58;430.98;;;96.57;;
8562;SDS011;16392;52.508;13.468;2023-03-01T10:13:26;429.50;;;91.88;;
8562;SDS011;16392;52.508;13.468;2023-03-01T10:16:00;430.77;;;93.38;;
8562;SDS011;16392;52.508;13.468;2023-03-01T10:18:33;430.63;;;91.78;;
8562;SDS011;16392;52.508;13.468;2023-03-01T10:21:02;428.73;;;90.70;;
8562;SDS011;16392;52.508;13.468;2023-03-01T10:23:35;428.13;;;90.22;;
8562;SDS011;16392;52.508;13.468;2023-03-01T10:26:07;427.55;;;90.22;;
8562;SDS011;16392;52.508;13.468;2023-03-01T10:28:46;428.45;;;87.70;;
8562;SDS011;16392;52.508;13.468;2023-03-01T10:31:20;430.85;;;92.38;;
8562;SDS011;16392;52.508;13.468;2023-03-01T10:33:54;428.75;;;90.78;;
8562;SDS011;16392;52.508;13.468;2023-03-01T10:36:22;432.23;;;95.95;;
8562;SDS011;16392;52.508;13.468;2023-03-01T10:38:50;431.80;;;92.35;;
8562;SDS011;16392;52.508;13.468;2023-03-01T10:41:20;430.58;;;91.90;;
8562;SDS011;16392;52.508;13.468;2023-03-01T10:43:50;432.63;;;93.30;;
8562;SDS011;16392;52.508;13.468;2023-03-01T10:46:23;432.63;;;93.15;;
8562;SDS011;16392;52.508;13.468;2023-03-01T10:49:06;434.58;;;97.93;;
8562;SDS011;16392;52.508;13.468;2023-03-01T10:51:39;435.45;;;98.72;;
8562;SDS011;16392;52.508;13.468;2023-03-01T10:54:14;435.65;;;99.40;;
8562;SDS011;16392;52.508;13.468;2023-03-01T10:56:46;433.23;;;98.80;;
8562;SDS011;16392;52.508;13.468;2023-03-01T10:59:19;432.02;;;97.60;;
8562;SDS011;16392;52.508;13.468;2023-03-01T11:02:01;431.15;;;93.78;;
8562;SDS011;16392;52.508;13.468;2023-03-01T11:04:57;428.10;;;90.53;;
8562;SDS011;16392;52.508;13.468;2023-03-01T11:07:25;427.35;;;88.93;;
8562;SDS011;16392;52.508;13.468;2023-03-01T11:09:51;432.55;;;93.88;;
8562;SDS011;16392;52.508;13.468;2023-03-01T11:12:18;433.08;;;95.75;;
8562;SDS011;16392;52.508;13.468;2023-03-01T11:14:47;434.92;;;98.22;;
8562;SDS011;16392;52.508;13.468;2023-03-01T11:17:15;434.45;;;97.32;;
8562;SDS011;16392;52.508;13.468;2023-03-01T11:20:00;436.58;;;99.55;;
8562;SDS011;16392;52.508;13.468;2023-03-01T11:22:29;435.88;;;99.55;;
8562;SDS011;16392;52.508;13.468;2023-03-01T11:24:59;433.40;;;95.82;;
8562;SDS011;16392;52.508;13.468;2023-03-01T11:27:29;431.60;;;96.10;;
8562;SDS011;16392;52.508;13.468;2023-03-01T11:29:59;432.90;;;97.82;;
8562;SDS011;16392;52.508;13.468;2023-03-01T11:32:31;429.38;;;95.45;;
8562;SDS011;16392;52.508;13.468;2023-03-01T11:35:04;426.38;;;89.80;;
8562;SDS011;16392;52.508;13.468;2023-03-01T11:37:38;425.35;;;87.22;;
8562;SDS011;16392;52.508;13.468;2023-03-01T11:40:23;423.95;;;87.55;;
8562;SDS011;16392;52.508;13.468;2023-03-01T11:42:56;419.23;;;81.95;;
8562;SDS011;16392;52.508;13.468;2023-03-01T11:45:33;419.20;;;81.85;;
8562;SDS011;16392;52.508;13.468;2023-03-01T11:51:07;422.63;;;84.43;;
8562;SDS011;16392;52.508;13.468;2023-03-01T11:53:49;425.08;;;88.88;;
8562;SDS011;16392;52.508;13.468;2023-03-01T11:56:24;424.38;;;86.60;;
8562;SDS011;16392;52.508;13.468;2023-03-01T11:59:01;422.90;;;87.03;;
8562;SDS011;16392;52.508;13.468;2023-03-01T12:01:43;418.48;;;82.57;;
8562;SDS011;16392;52.508;13.468;2023-03-01T12:04:34;418.05;;;82.05;;
8562;SDS011;16392;52.508;13.468;2023-03-01T12:07:17;417.90;;;80.72;;
8562;SDS011;16392;52.508;13.468;2023-03-01T12:10:04;420.83;;;84.90;;
8562;SDS011;16392;52.508;13.468;2023-03-01T12:12:52;422.25;;;84.57;;
8562;SDS011;16392;52.508;13.468;2023-03-01T12:15:51;423.10;;;86.47;;
8562;SDS011;16392;52.508;13.468;2023-03-01T12:18:54;425.02;;;86.90;;
8562;SDS011;16392;52.508;13.468;2023-03-01T12:21:35;429.50;;;89.22;;
8562;SDS011;16392;52.508;13.468;2023-03-01T12:24:27;428.08;;;88.38;;
8562;SDS011;16392;52.508;13.468;2023-03-01T12:27:13;428.02;;;90.85;;
8562;SDS011;16392;52.508;13.468;2023-03-01T12:29:57;428.50;;;90.93;;
8562;SDS011;16392;52.508;13.468;2023-03-01T12:35:24;432.33;;;94.20;;
8562;SDS011;16392;52.508;13.468;2023-03-01T12:38:10;425.95;;;89.13;;
8562;SDS011;16392;52.508;13.468;2023-03-01T12:41:00;425.27;;;89.80;;
8562;SDS011;16392;52.508;13.468;2023-03-01T12:43:40;425.67;;;87.32;;
8562;SDS011;16392;52.508;13.468;2023-03-01T12:46:21;424.75;;;87.63;;
8562;SDS011;16392;52.508;13.468;2023-03-01T12:48:59;431.55;;;91.53;;
8562;SDS011;16392;52.508;13.468;2023-03-01T12:51:32;429.08;;;92.68;;
8562;SDS011;16392;52.508;13.468;2023-03-01T12:54:01;426.42;;;90.18;;
8562;SDS011;16392;52.508;13.468;2023-03-01T12:56:38;422.00;;;85.82;;
8562;SDS011;16392;52.508;13.468;2023-03-01T12:59:08;424.23;;;86.57;;
8562;SDS011;16392;52.508;13.468;2023-03-01T13:01:41;425.58;;;89.60;;
8562;SDS011;16392;52.508;13.468;2023-03-01T13:04:14;421.25;;;86.07;;
8562;SDS011;16392;52.508;13.468;2023-03-01T13:06:58;422.67;;;86.35;;
8562;SDS011;16392;52.508;13.468;2023-03-01T13:09:34;421.23;;;86.15;;
8562;SDS011;16392;52.508;13.468;2023-03-01T13:18:00;417.70;;;85.25;;
8562;SDS011;16392;52.508;13.468;2023-03-01T13:20:33;417.08;;;82.00;;
8562;SDS011;16392;52.508;13.468;2023-03-01T13:23:11;417.00;;;81.53;;
8562;SDS011;16392;52.508;13.468;2023-03-01T13:26:05;418.52;;;82.10;;
8562;SDS011;16392;52.508;13.468;2023-03-01T13:28:39;419.67;;;85.07;;
8562;SDS011;16392;52.508;13.468;2023-03-01T13:31:07;420.50;;;83.13;;
8562;SDS011;16392;52.508;13.468;2023-03-01T13:33:42;419.20;;;83.15;;
8562;SDS011;16392;52.508;13.468;2023-03-01T13:36:10;420.13;;;82.47;;
8562;SDS011;16392;52.508;13.468;2023-03-01T13:39:00;418.17;;;84.70;;
8562;SDS011;16392;52.508;13.468;2023-03-01T13:44:17;412.38;;;79.25;;
8562;SDS011;16392;52.508;13.468;2023-03-01T13:46:51;417.67;;;83.47;;
8562;SDS011;16392;52.508;13.468;2023-03-01T13:49:19;418.95;;;81.10;;
8562;SDS011;16392;52.508;13.468;2023-03-01T13:51:49;417.00;;;84.78;;
8562;SDS011;16392;52.508;13.468;2023-03-01T13:54:21;417.50;;;81.10;;
8562;SDS011;16392;52.508;13.468;2023-03-01T13:56:52;418.15;;;84.43;;
8562;SDS011;16392;52.508;13.468;2023-03-01T13:59:20;416.80;;;81.28;;
8562;SDS011;16392;52.508;13.468;2023-03-01T14:01:51;415.50;;;83.63;;
8562;SDS011;16392;52.508;13.468;2023-03-01T14:04:20;414.65;;;80.97;;
8562;SDS011;16392;52.508;13.468;2023-03-01T14:06:49;412.50;;;79.55;;
8562;SDS011;16392;52.508;13.468;2023-03-01T14:09:16;413.92;;;79.07;;
8562;SDS011;16392;52.508;13.468;2023-03-01T14:11:55;413.05;;;79.97;;
8562;SDS011;16392;52.508;13.468;2023-03-01T14:14:36;409.05;;;76.18;;
8562;SDS011;16392;52.508;13.468;2023-03-01T14:20:07;407.77;;;77.00;;
8562;SDS011;16392;52.508;13.468;2023-03-01T14:22:37;406.80;;;76.22;;
8562;SDS011;16392;52.508;13.468;2023-03-01T14:25:19;411.83;;;76.90;;
8562;SDS011;16392;52.508;13.468;2023-03-01T14:27:54;409.30;;;78.93;;
8562;SDS011;16392;52.508;13.468;2023-03-01T14:30:26;405.38;;;74.60;;
8562;SDS011;16392;52.508;13.468;2023-03-01T14:32:58;409.42;;;78.00;;
8562;SDS011;16392;52.508;13.468;2023-03-01T14:35:27;408.52;;;77.13;;
8562;SDS011;16392;52.508;13.468;2023-03-01T14:37:54;411.77;;;79.53;;
8562;SDS011;16392;52.508;13.468;2023-03-01T14:40:24;405.23;;;75.80;;
8562;SDS011;16392;52.508;13.468;2023-03-01T14:42:53;405.58;;;76.50;;